Time;durP1;ratioP1;P1;durP2;ratioP2;P2;SDS_P1;SDS_P2;PMS_P1;PMS_P2;Temp;Humidity;BMP_temperature;BMP_pressure;BME280_temperature;BME280_humidity;BME280_pressure;Samples;Min_cycle;Max_cycle;Signal;HPM_P1;HPM_P2
2023/11/11 00:00:37;;;;;;;8.23;6.28;;;7.60;99.90;;;;;;5013064;28;20038;-80
2023/11/11 00:03:06;;;;;;;9.18;6.32;;;7.60;99.90;;;;;;4993394;28;20064;-80
2023/11/11 00:05:32;;;;;;;11.88;7.10;;;7.70;99.90;;;;;;5007041;28;20056;-81
2023/11/11 00:07:58;;;;;;;10.20;6.10;;;7.70;99.90;;;;;;4996144;28;20702;-83
2023/11/11 00:10:24;;;;;;;10.32;6.28;;;7.60;99.90;;;;;;4996578;28;20458;-81
2023/11/11 00:12:50;;;;;;;8.15;5.82;;;7.70;99.90;;;;;;4993043;28;20045;-81
2023/11/11 00:15:16;;;;;;;8.82;6.30;;;7.70;99.90;;;;;;4990967;28;20034;-81
2023/11/11 00:17:41;;;;;;;10.00;6.30;;;7.70;99.90;;;;;;5007233;28;20545;-81
2023/11/11 00:20:18;;;;;;;10.48;7.00;;;7.70;99.90;;;;;;4992350;28;20052;-81
2023/11/11 00:22:44;;;;;;;11.63;6.78;;;7.70;99.90;;;;;;5005484;28;20052;-81
2023/11/11 00:25:12;;;;;;;13.43;8.63;;;7.60;99.90;;;;;;4994348;28;20045;-81
2023/11/11 00:27:41;;;;;;;21.48;9.80;;;7.60;99.90;;;;;;4988867;28;20038;-81
2023/11/11 00:30:11;;;;;;;18.73;9.00;;;7.60;99.90;;;;;;5005193;28;20045;-81
2023/11/11 00:32:36;;;;;;;9.80;7.75;;;7.60;99.90;;;;;;4998487;28;20053;-81
2023/11/11 00:35:03;;;;;;;11.65;7.18;;;7.50;99.90;;;;;;5011742;28;20495;-81
2023/11/11 00:37:29;;;;;;;12.10;7.20;;;7.50;99.90;;;;;;4993996;28;20591;-81
2023/11/11 00:39:58;;;;;;;7.10;5.38;;;7.50;99.90;;;;;;5012194;28;20044;-81
2023/11/11 00:42:24;;;;;;;6.82;4.82;;;7.50;99.90;;;;;;4995878;28;20052;-81
2023/11/11 00:44:50;;;;;;;8.65;4.20;;;7.50;99.90;;;;;;4992550;28;20057;-82
2023/11/11 00:47:16;;;;;;;7.90;4.43;;;7.50;99.90;;;;;;5012575;28;20041;-81
2023/11/11 00:49:43;;;;;;;6.47;3.47;;;7.50;99.90;;;;;;5011634;28;20582;-81
2023/11/11 00:52:09;;;;;;;7.40;3.55;;;7.50;99.90;;;;;;5004920;28;20041;-81
2023/11/11 00:54:38;;;;;;;7.57;2.90;;;7.40;99.90;;;;;;5002674;28;20048;-81
2023/11/11 00:57:04;;;;;;;4.63;2.60;;;7.40;99.90;;;;;;4991976;28;20056;-82
2023/11/11 00:59:31;;;;;;;4.80;2.67;;;7.40;99.90;;;;;;4995780;28;20511;-81
2023/11/11 01:02:01;;;;;;;5.50;2.22;;;7.40;99.90;;;;;;5013020;28;20069;-81
2023/11/11 01:04:28;;;;;;;4.32;1.90;;;7.40;99.90;;;;;;4996433;28;20131;-81
2023/11/11 01:06:54;;;;;;;5.45;2.08;;;7.40;99.90;;;;;;4997109;28;20871;-81
2023/11/11 01:09:20;;;;;;;5.72;2.05;;;7.40;99.90;;;;;;4989231;28;20045;-82
2023/11/11 01:11:47;;;;;;;3.05;1.80;;;7.30;99.90;;;;;;5004149;28;20081;-81
2023/11/11 01:14:13;;;;;;;5.47;2.05;;;7.40;99.90;;;;;;5011219;28;20427;-81
2023/11/11 01:16:39;;;;;;;3.60;1.30;;;7.30;99.90;;;;;;5007440;28;20037;-81
2023/11/11 01:19:05;;;;;;;7.72;2.05;;;7.30;99.90;;;;;;5016316;28;20522;-81
2023/11/11 01:21:31;;;;;;;7.13;1.98;;;7.30;99.90;;;;;;5010561;28;20037;-83
2023/11/11 01:23:57;;;;;;;4.22;1.58;;;7.20;99.90;;;;;;4990991;28;20041;-81
2023/11/11 01:26:25;;;;;;;4.57;1.50;;;7.20;99.90;;;;;;5005665;28;20135;-81
2023/11/11 01:28:51;;;;;;;4.65;1.50;;;7.10;99.90;;;;;;5007905;28;20091;-82
2023/11/11 01:31:20;;;;;;;5.00;1.58;;;7.10;99.90;;;;;;5009072;28;20052;-81
2023/11/11 01:33:46;;;;;;;5.95;1.63;;;7.10;99.90;;;;;;5003883;28;20049;-81
2023/11/11 01:36:12;;;;;;;5.88;1.70;;;7.10;99.90;;;;;;5009835;28;20063;-81
2023/11/11 01:38:38;;;;;;;3.35;1.70;;;7.00;99.90;;;;;;5008271;28;20234;-81
2023/11/11 01:41:04;;;;;;;5.60;1.60;;;7.00;99.90;;;;;;5008476;28;20053;-81
2023/11/11 01:43:30;;;;;;;2.85;1.50;;;6.90;99.90;;;;;;4991845;28;20047;-82
2023/11/11 01:45:59;;;;;;;3.15;1.30;;;6.90;99.90;;;;;;5006732;28;20045;-81
2023/11/11 01:48:26;;;;;;;5.50;1.70;;;6.90;99.90;;;;;;5014655;28;20455;-82
2023/11/11 01:50:53;;;;;;;3.15;1.40;;;6.80;99.90;;;;;;5014872;28;20050;-81
2023/11/11 01:53:19;;;;;;;3.28;1.20;;;6.70;99.90;;;;;;5009500;28;20052;-81
2023/11/11 01:55:47;;;;;;;4.63;1.45;;;6.70;99.90;;;;;;4990960;28;20511;-81
2023/11/11 01:58:16;;;;;;;4.20;1.20;;;6.60;99.90;;;;;;5005655;28;21318;-81
2023/11/11 02:00:42;;;;;;;4.10;1.33;;;6.60;99.90;;;;;;5008635;28;20076;-81
2023/11/11 02:03:08;;;;;;;6.32;1.90;;;6.60;99.90;;;;;;5008937;28;20068;-81
2023/11/11 02:05:34;;;;;;;5.03;1.80;;;6.50;99.90;;;;;;5016296;28;20134;-81
2023/11/11 02:08:03;;;;;;;4.97;1.75;;;6.50;99.90;;;;;;4989936;28;20069;-81
2023/11/11 02:10:31;;;;;;;4.82;1.92;;;6.40;99.90;;;;;;4991128;28;20052;-81
2023/11/11 02:12:57;;;;;;;7.93;2.55;;;6.40;99.90;;;;;;4990536;28;20045;-81
2023/11/11 02:15:23;;;;;;;5.60;1.83;;;6.30;99.90;;;;;;5018053;28;20134;-81
2023/11/11 02:17:49;;;;;;;4.85;2.65;;;6.30;99.90;;;;;;4991352;28;20519;-80
2023/11/11 02:20:15;;;;;;;7.57;2.60;;;6.30;99.90;;;;;;4990877;28;20496;-81
2023/11/11 02:22:41;;;;;;;9.90;3.15;;;6.30;99.90;;;;;;5016171;28;20121;-81
2023/11/11 02:25:11;;;;;;;10.98;3.65;;;6.30;99.90;;;;;;5006394;28;20507;-81
2023/11/11 02:27:37;;;;;;;7.87;3.03;;;6.30;99.90;;;;;;5006273;28;20068;-81
2023/11/11 02:30:03;;;;;;;7.28;2.53;;;6.30;99.90;;;;;;5013032;28;20334;-81
2023/11/11 02:32:30;;;;;;;4.97;2.00;;;6.30;99.90;;;;;;5002291;28;20041;-81
2023/11/11 02:34:58;;;;;;;7.35;2.22;;;6.30;99.90;;;;;;5011506;28;20041;-81
2023/11/11 02:37:24;;;;;;;6.82;2.10;;;6.30;99.90;;;;;;5007175;28;20057;-81
2023/11/11 02:39:50;;;;;;;6.88;2.50;;;6.40;99.90;;;;;;5012127;28;20052;-82
2023/11/11 02:42:15;;;;;;;6.97;1.80;;;6.40;99.90;;;;;;4985288;28;20037;-82
2023/11/11 02:44:41;;;;;;;6.53;1.90;;;6.40;99.90;;;;;;5003130;28;20557;-82
2023/11/11 02:47:07;;;;;;;5.13;1.90;;;6.50;99.90;;;;;;4992723;28;20496;-81
2023/11/11 02:49:33;;;;;;;7.30;1.55;;;6.40;99.90;;;;;;4993461;28;20044;-82
2023/11/11 02:51:59;;;;;;;9.18;1.80;;;6.40;99.90;;;;;;4991830;28;20132;-81
2023/11/11 02:54:25;;;;;;;8.55;2.10;;;6.50;99.90;;;;;;5009029;28;20044;-81
2023/11/11 02:56:54;;;;;;;5.03;1.48;;;6.40;99.90;;;;;;5002683;28;20047;-82
2023/11/11 02:59:20;;;;;;;4.45;1.33;;;6.50;99.90;;;;;;5006243;28;20037;-81
2023/11/11 03:01:46;;;;;;;7.53;1.58;;;6.40;99.90;;;;;;5000778;28;20048;-81
2023/11/11 03:04:12;;;;;;;6.68;1.55;;;6.50;99.90;;;;;;5004563;28;20096;-81
2023/11/11 03:06:46;;;;;;;5.38;1.40;;;6.40;99.90;;;;;;4992309;28;20044;-81
2023/11/11 03:09:12;;;;;;;2.45;1.13;;;6.50;99.90;;;;;;4991481;28;20587;-81
2023/11/11 03:11:38;;;;;;;5.63;1.20;;;6.50;99.90;;;;;;5007995;28;20041;-81
2023/11/11 03:14:04;;;;;;;2.13;0.68;;;6.50;99.90;;;;;;5002716;28;20099;-81
2023/11/11 03:16:38;;;;;;;2.70;0.70;;;6.50;99.90;;;;;;4989715;28;20057;-81
2023/11/11 03:19:05;;;;;;;4.40;0.77;;;6.50;99.90;;;;;;4990990;28;20087;-81
2023/11/11 03:21:36;;;;;;;3.85;1.05;;;6.50;99.90;;;;;;4990273;28;20041;-78
2023/11/11 03:24:02;;;;;;;4.10;0.88;;;6.50;99.90;;;;;;4988693;28;20463;-79
2023/11/11 03:26:28;;;;;;;3.72;0.60;;;6.50;99.90;;;;;;4986734;28;20042;-79
2023/11/11 03:28:54;;;;;;;3.50;0.60;;;6.50;99.90;;;;;;4982463;28;20622;-78
2023/11/11 03:31:19;;;;;;;1.58;0.57;;;6.50;99.90;;;;;;4992345;28;20041;-78
2023/11/11 03:33:46;;;;;;;3.08;0.70;;;6.50;99.90;;;;;;4988310;28;20922;-79
2023/11/11 03:36:12;;;;;;;1.48;0.50;;;6.50;99.90;;;;;;4989114;28;20287;-78
2023/11/11 03:38:38;;;;;;;2.92;0.50;;;6.50;99.90;;;;;;5006741;28;20037;-78
2023/11/11 03:41:04;;;;;;;1.55;0.38;;;6.50;99.90;;;;;;4991621;28;20049;-78
2023/11/11 03:43:30;;;;;;;2.17;0.55;;;6.50;99.90;;;;;;5009329;28;20046;-78
2023/11/11 03:45:56;;;;;;;5.30;0.60;;;6.50;99.90;;;;;;4991564;28;20045;-77
2023/11/11 03:48:24;;;;;;;3.55;0.70;;;6.50;99.90;;;;;;4989553;28;20053;-78
2023/11/11 03:50:50;;;;;;;1.75;0.40;;;6.50;99.90;;;;;;4989215;28;20076;-79
2023/11/11 03:53:19;;;;;;;3.35;0.70;;;6.50;99.90;;;;;;4988349;28;20077;-78
2023/11/11 03:55:44;;;;;;;1.58;0.50;;;6.40;99.90;;;;;;4981341;28;20476;-79
2023/11/11 03:58:10;;;;;;;6.15;0.50;;;6.40;99.90;;;;;;4990890;28;20048;-78
2023/11/11 04:00:36;;;;;;;3.20;0.50;;;6.50;99.90;;;;;;4996779;28;20449;-78
2023/11/11 04:03:02;;;;;;;3.17;0.70;;;6.50;99.90;;;;;;4989047;28;20163;-79
2023/11/11 04:05:28;;;;;;;3.50;0.50;;;6.50;99.90;;;;;;4989443;28;20049;-79
2023/11/11 04:07:53;;;;;;;2.58;0.55;;;6.50;99.90;;;;;;5008746;28;20136;-78
2023/11/11 04:10:19;;;;;;;1.73;0.60;;;6.50;99.90;;;;;;4993842;28;20049;-79
2023/11/11 04:12:46;;;;;;;4.35;0.80;;;6.50;99.90;;;;;;5009619;28;20037;-78
2023/11/11 04:15:12;;;;;;;3.05;0.50;;;6.50;99.90;;;;;;4991592;28;20041;-78
2023/11/11 04:17:42;;;;;;;2.58;0.70;;;6.50;99.90;;;;;;4989703;28;20152;-78
2023/11/11 04:20:12;;;;;;;2.22;0.60;;;6.50;99.90;;;;;;4992110;28;20497;-78
2023/11/11 04:22:38;;;;;;;2.58;0.57;;;6.50;99.90;;;;;;5001957;28;20050;-78
2023/11/11 04:25:06;;;;;;;2.30;0.50;;;6.50;99.90;;;;;;5001901;28;20049;-77
2023/11/11 04:27:32;;;;;;;4.63;0.50;;;6.50;99.90;;;;;;4990358;28;20068;-77
2023/11/11 04:29:58;;;;;;;3.00;0.60;;;6.50;99.90;;;;;;5008862;28;20041;-77
2023/11/11 04:32:25;;;;;;;4.30;0.70;;;6.50;99.90;;;;;;5013316;28;20053;-77
2023/11/11 04:34:54;;;;;;;4.13;0.65;;;6.40;99.90;;;;;;5008379;28;20050;-77
2023/11/11 04:37:20;;;;;;;3.08;0.57;;;6.40;99.90;;;;;;4997396;28;20464;-77
2023/11/11 04:39:46;;;;;;;2.72;0.70;;;6.40;99.90;;;;;;5009546;28;20075;-78
2023/11/11 04:42:16;;;;;;;3.15;0.90;;;6.40;99.90;;;;;;5012597;28;20085;-77
2023/11/11 04:44:45;;;;;;;4.30;0.50;;;6.40;99.90;;;;;;5004882;28;20057;-77
2023/11/11 04:47:11;;;;;;;2.78;0.57;;;6.40;99.90;;;;;;5006158;28;20041;-77
2023/11/11 04:49:37;;;;;;;3.78;0.50;;;6.40;99.90;;;;;;5007718;28;20136;-77
2023/11/11 04:52:07;;;;;;;4.28;0.70;;;6.40;99.90;;;;;;5010501;28;20567;-77
2023/11/11 04:54:33;;;;;;;6.47;0.60;;;6.40;99.90;;;;;;4993083;28;20046;-78
2023/11/11 04:57:02;;;;;;;3.53;0.60;;;6.40;99.90;;;;;;4992884;28;20515;-77
2023/11/11 04:59:29;;;;;;;8.40;0.90;;;6.40;99.90;;;;;;4996346;28;20053;-77
2023/11/11 05:01:55;;;;;;;4.40;0.82;;;6.40;99.90;;;;;;4991795;28;20072;-78
2023/11/11 05:04:22;;;;;;;3.55;0.80;;;6.50;99.90;;;;;;4992645;28;20049;-82
2023/11/11 05:06:48;;;;;;;3.95;0.63;;;6.60;99.90;;;;;;5004901;28;20316;-78
2023/11/11 05:09:15;;;;;;;4.22;0.65;;;6.40;99.90;;;;;;4995527;28;20535;-78
2023/11/11 05:11:42;;;;;;;2.55;0.50;;;6.50;99.90;;;;;;5008345;28;20064;-79
2023/11/11 05:14:12;;;;;;;4.35;0.60;;;6.50;99.90;;;;;;5007359;28;20049;-78
2023/11/11 05:16:39;;;;;;;4.20;0.70;;;6.50;99.90;;;;;;4988004;28;20041;-78
2023/11/11 05:19:08;;;;;;;3.88;1.10;;;6.50;99.90;;;;;;5011091;28;20534;-83
2023/11/11 05:21:35;;;;;;;5.38;0.93;;;6.50;99.90;;;;;;5007267;28;20041;-82
2023/11/11 05:24:01;;;;;;;3.33;0.60;;;6.40;99.90;;;;;;4991484;28;20470;-83
2023/11/11 05:26:28;;;;;;;3.58;0.70;;;6.50;99.90;;;;;;4983825;28;20057;-82
2023/11/11 05:28:55;;;;;;;8.05;0.88;;;6.50;99.90;;;;;;5004971;28;20658;-83
2023/11/11 05:31:22;;;;;;;5.35;1.00;;;6.50;99.90;;;;;;4992467;28;20102;-83
2023/11/11 05:33:49;;;;;;;6.18;0.90;;;6.50;99.90;;;;;;4999575;28;20038;-83
2023/11/11 05:36:16;;;;;;;4.55;0.80;;;6.50;99.90;;;;;;5017446;28;20104;-82
2023/11/11 05:38:44;;;;;;;5.20;0.80;;;6.50;99.90;;;;;;4997426;28;20221;-83
2023/11/11 05:41:10;;;;;;;6.30;0.85;;;6.50;99.90;;;;;;4988431;28;20496;-82
2023/11/11 05:43:36;;;;;;;5.32;1.08;;;6.50;99.90;;;;;;5009003;28;20056;-82
2023/11/11 05:46:02;;;;;;;4.75;1.08;;;6.50;99.90;;;;;;4990058;28;20049;-82
2023/11/11 05:48:28;;;;;;;3.10;0.82;;;6.60;99.90;;;;;;4992236;28;20050;-82
2023/11/11 05:50:57;;;;;;;4.18;1.00;;;6.60;99.90;;;;;;4989076;28;20085;-82
2023/11/11 05:53:25;;;;;;;5.15;0.60;;;6.60;99.90;;;;;;4993372;28;20534;-82
2023/11/11 05:55:54;;;;;;;2.30;0.52;;;6.60;99.90;;;;;;4993659;28;20673;-82
2023/11/11 05:58:20;;;;;;;4.30;0.73;;;6.70;99.90;;;;;;5005877;28;20592;-83
2023/11/11 06:00:45;;;;;;;6.57;0.70;;;6.60;99.90;;;;;;5007272;28;20069;-82
2023/11/11 06:03:11;;;;;;;5.60;1.08;;;6.60;99.90;;;;;;4993525;28;20868;-83
2023/11/11 06:05:37;;;;;;;4.80;0.95;;;6.60;99.90;;;;;;4995343;28;20057;-83
2023/11/11 06:08:03;;;;;;;6.95;1.23;;;6.60;99.90;;;;;;4990140;28;20049;-82
2023/11/11 06:10:32;;;;;;;7.70;0.90;;;6.60;99.90;;;;;;5011752;28;20048;-83
2023/11/11 06:12:58;;;;;;;5.53;0.95;;;6.60;99.90;;;;;;5008722;28;20088;-83
2023/11/11 06:15:24;;;;;;;3.95;0.60;;;6.60;99.90;;;;;;4990272;28;20135;-83
2023/11/11 06:17:50;;;;;;;3.25;0.60;;;6.60;99.90;;;;;;5006971;28;20042;-82
2023/11/11 06:20:17;;;;;;;4.32;0.60;;;6.60;99.90;;;;;;4994690;28;20108;-82
2023/11/11 06:22:42;;;;;;;3.30;0.65;;;6.60;99.90;;;;;;4988612;28;20037;-82
2023/11/11 06:25:08;;;;;;;4.15;0.75;;;6.60;99.90;;;;;;5016977;28;20045;-82
2023/11/11 06:27:34;;;;;;;2.88;0.55;;;6.60;99.90;;;;;;5007031;28;20040;-82
2023/11/11 06:30:00;;;;;;;3.58;0.60;;;6.60;99.90;;;;;;4991201;28;20099;-81
2023/11/11 06:32:26;;;;;;;4.55;0.70;;;6.50;99.90;;;;;;4991546;28;20053;-82
2023/11/11 06:34:52;;;;;;;3.65;0.80;;;6.50;99.90;;;;;;5006568;28;20064;-82
2023/11/11 06:37:19;;;;;;;3.97;0.77;;;6.50;99.90;;;;;;4992172;28;20048;-82
2023/11/11 06:39:45;;;;;;;2.63;0.60;;;6.50;99.90;;;;;;5005189;28;20042;-82
2023/11/11 06:42:11;;;;;;;5.30;1.10;;;6.50;99.90;;;;;;5006680;28;20106;-81
2023/11/11 06:44:36;;;;;;;4.35;0.93;;;6.50;99.90;;;;;;4994140;28;20045;-82
2023/11/11 06:47:02;;;;;;;4.30;0.90;;;6.50;99.90;;;;;;5009185;28;20037;-82
2023/11/11 06:49:28;;;;;;;4.90;1.10;;;6.50;99.90;;;;;;4993654;28;20037;-81
2023/11/11 06:51:54;;;;;;;7.28;1.02;;;6.50;99.90;;;;;;5003179;28;20107;-81
2023/11/11 06:54:20;;;;;;;6.40;0.90;;;6.50;99.90;;;;;;5005611;28;20049;-81
2023/11/11 06:56:45;;;;;;;6.10;1.05;;;6.50;99.90;;;;;;5018447;28;20715;-81
2023/11/11 06:59:11;;;;;;;3.80;0.95;;;6.50;99.90;;;;;;5010660;28;20048;-81
2023/11/11 07:01:39;;;;;;;5.78;0.98;;;6.50;99.90;;;;;;4991977;28;20048;-81
2023/11/11 07:04:05;;;;;;;7.88;1.10;;;6.60;99.90;;;;;;5006118;28;20057;-81
2023/11/11 07:06:31;;;;;;;2.75;0.70;;;6.60;99.90;;;;;;5007237;28;20056;-81
2023/11/11 07:08:56;;;;;;;4.65;0.80;;;6.60;99.90;;;;;;4988084;28;20029;-82
2023/11/11 07:11:22;;;;;;;5.32;0.90;;;6.60;99.90;;;;;;4991443;28;20040;-81
2023/11/11 07:13:48;;;;;;;3.47;1.08;;;6.60;99.90;;;;;;5005991;28;20507;-83
2023/11/11 07:16:17;;;;;;;4.88;0.93;;;6.60;99.90;;;;;;4991702;28;20049;-82
2023/11/11 07:18:46;;;;;;;3.53;1.20;;;6.60;99.90;;;;;;4993601;28;20037;-82
2023/11/11 07:21:19;;;;;;;3.60;0.85;;;6.60;99.90;;;;;;5005168;28;20049;-82
2023/11/11 07:23:46;;;;;;;4.15;0.70;;;6.60;99.90;;;;;;5006388;28;20046;-82
2023/11/11 07:26:12;;;;;;;4.63;0.90;;;6.70;99.90;;;;;;5010893;28;20041;-83
2023/11/11 07:28:38;;;;;;;6.50;1.73;;;6.70;99.90;;;;;;4993964;28;20049;-82
2023/11/11 07:31:04;;;;;;;4.68;0.68;;;6.70;99.90;;;;;;4994441;28;20044;-83
2023/11/11 07:33:30;;;;;;;2.70;0.75;;;6.70;99.90;;;;;;5006381;28;20447;-83
2023/11/11 07:35:56;;;;;;;5.18;0.98;;;6.70;99.90;;;;;;4990324;28;20045;-83
2023/11/11 07:38:28;;;;;;;3.60;0.70;;;6.70;99.90;;;;;;5008350;28;20048;-83
2023/11/11 07:40:53;;;;;;;3.78;0.60;;;6.70;99.90;;;;;;5003960;28;20045;-83
2023/11/11 07:43:19;;;;;;;2.78;0.60;;;6.70;99.90;;;;;;4992363;28;20053;-83
2023/11/11 07:45:48;;;;;;;5.43;0.70;;;6.70;99.90;;;;;;4996114;28;20037;-82
2023/11/11 07:48:13;;;;;;;7.70;0.82;;;6.70;99.90;;;;;;5015233;28;20060;-83
2023/11/11 07:50:39;;;;;;;5.25;0.80;;;6.70;99.90;;;;;;4997239;28;20033;-83
2023/11/11 07:53:06;;;;;;;6.22;0.80;;;6.80;99.90;;;;;;4989059;28;20111;-83
2023/11/11 07:55:32;;;;;;;10.52;1.27;;;6.70;99.90;;;;;;4987901;28;20408;-83
2023/11/11 07:58:01;;;;;;;4.13;0.63;;;6.80;99.90;;;;;;5009204;28;20037;-82
2023/11/11 08:00:27;;;;;;;4.63;0.63;;;6.70;99.90;;;;;;5013673;28;20069;-82
2023/11/11 08:02:53;;;;;;;3.40;0.52;;;6.80;99.90;;;;;;5010217;28;20504;-82
2023/11/11 08:05:19;;;;;;;7.10;0.80;;;6.70;99.90;;;;;;5013552;28;20103;-82
2023/11/11 08:07:45;;;;;;;3.15;0.50;;;6.70;99.90;;;;;;5010048;28;20030;-82
2023/11/11 08:10:11;;;;;;;6.18;1.02;;;6.70;99.90;;;;;;4993733;28;20064;-83
2023/11/11 08:12:37;;;;;;;7.28;0.80;;;6.80;99.90;;;;;;4992125;28;20148;-83
2023/11/11 08:15:03;;;;;;;2.70;0.60;;;6.80;99.90;;;;;;4995921;28;20053;-82
2023/11/11 08:17:31;;;;;;;2.80;0.80;;;6.80;99.90;;;;;;4991338;28;20051;-82
2023/11/11 08:19:57;;;;;;;6.53;0.90;;;6.80;99.90;;;;;;5009484;28;20065;-82
2023/11/11 08:22:25;;;;;;;5.35;0.80;;;6.70;99.90;;;;;;4997409;28;20399;-83
2023/11/11 08:24:53;;;;;;;2.47;0.50;;;6.80;99.90;;;;;;5017054;28;20052;-82
2023/11/11 08:27:20;;;;;;;3.08;0.50;;;6.80;99.90;;;;;;4995160;28;20447;-82
2023/11/11 08:29:49;;;;;;;4.25;0.60;;;6.80;99.90;;;;;;4991125;28;20837;-82
2023/11/11 08:32:15;;;;;;;4.20;0.93;;;6.80;99.90;;;;;;5012740;28;20049;-82
2023/11/11 08:34:41;;;;;;;4.07;0.60;;;6.80;99.90;;;;;;4990807;28;20128;-82
2023/11/11 08:37:07;;;;;;;1.92;0.50;;;6.90;99.90;;;;;;4993600;28;20128;-82
2023/11/11 08:39:32;;;;;;;5.40;0.68;;;6.80;99.90;;;;;;5009491;28;20055;-82
2023/11/11 08:41:58;;;;;;;2.97;0.57;;;6.90;99.90;;;;;;4996543;28;20404;-82
2023/11/11 08:44:24;;;;;;;2.75;0.43;;;6.90;99.90;;;;;;4993493;28;20622;-82
2023/11/11 08:46:50;;;;;;;3.42;0.43;;;6.90;99.90;;;;;;5022476;28;20114;-83
2023/11/11 08:49:16;;;;;;;2.03;0.60;;;6.90;99.90;;;;;;4990557;28;20500;-82
2023/11/11 08:51:42;;;;;;;4.03;0.63;;;6.90;99.90;;;;;;4993051;28;20132;-83
2023/11/11 08:54:10;;;;;;;2.25;0.50;;;6.90;99.90;;;;;;5009813;28;20148;-82
2023/11/11 08:56:36;;;;;;;4.43;0.93;;;7.00;99.90;;;;;;5012152;28;20045;-82
2023/11/11 08:59:03;;;;;;;4.85;0.60;;;7.00;99.90;;;;;;4991037;28;20045;-83
2023/11/11 09:01:32;;;;;;;4.10;0.75;;;7.00;99.90;;;;;;4993020;28;20409;-83
2023/11/11 09:03:58;;;;;;;1.88;0.50;;;7.00;99.90;;;;;;4994303;28;20041;-83
2023/11/11 09:06:24;;;;;;;4.35;0.60;;;7.10;99.90;;;;;;5004335;28;20056;-83
2023/11/11 09:08:50;;;;;;;5.05;0.98;;;7.10;99.90;;;;;;4993969;28;20074;-83
2023/11/11 09:11:16;;;;;;;9.20;0.90;;;7.10;99.90;;;;;;5007077;28;20103;-83
2023/11/11 09:13:42;;;;;;;4.78;0.90;;;7.10;99.90;;;;;;5018132;28;20049;-83
2023/11/11 09:16:08;;;;;;;4.43;0.75;;;7.10;99.90;;;;;;5006685;28;20051;-82
2023/11/11 09:18:34;;;;;;;4.45;0.90;;;7.10;99.90;;;;;;4994910;28;20052;-82
2023/11/11 09:21:00;;;;;;;5.57;0.70;;;7.10;99.90;;;;;;5010581;28;20053;-81
2023/11/11 09:23:26;;;;;;;3.00;0.73;;;7.10;99.90;;;;;;5010885;28;20045;-81
2023/11/11 09:25:52;;;;;;;6.82;1.05;;;7.10;99.90;;;;;;4993655;28;20095;-81
2023/11/11 09:28:18;;;;;;;4.70;0.95;;;7.10;99.90;;;;;;5011161;28;20435;-83
2023/11/11 09:30:43;;;;;;;4.95;0.95;;;7.10;99.90;;;;;;5008386;28;20124;-81
2023/11/11 09:33:10;;;;;;;5.57;1.02;;;7.10;99.90;;;;;;5007330;28;20399;-81
2023/11/11 09:35:35;;;;;;;5.60;1.00;;;7.10;99.90;;;;;;4992819;28;20033;-81
2023/11/11 09:38:02;;;;;;;10.27;1.30;;;7.10;99.90;;;;;;4990620;28;20073;-80
2023/11/11 09:40:29;;;;;;;4.55;1.17;;;7.10;99.90;;;;;;4990813;28;20475;-80
2023/11/11 09:42:55;;;;;;;5.75;1.27;;;7.10;99.90;;;;;;5008961;28;20050;-80
2023/11/11 09:45:21;;;;;;;6.50;0.90;;;7.10;99.90;;;;;;5004311;28;20053;-80
2023/11/11 09:47:51;;;;;;;5.82;1.30;;;7.10;99.90;;;;;;4989394;28;20049;-80
2023/11/11 09:50:20;;;;;;;5.27;1.20;;;7.10;99.90;;;;;;4997177;28;20111;-80
2023/11/11 09:52:47;;;;;;;3.47;1.13;;;7.10;99.90;;;;;;4990459;28;20527;-80
2023/11/11 09:55:14;;;;;;;6.47;1.20;;;7.10;99.90;;;;;;4993296;28;20064;-80
2023/11/11 09:57:40;;;;;;;3.53;0.88;;;7.10;99.90;;;;;;4986469;28;20033;-81
2023/11/11 10:00:10;;;;;;;3.97;1.02;;;7.10;99.90;;;;;;5007056;28;20033;-81
2023/11/11 10:02:37;;;;;;;4.25;0.80;;;7.10;99.90;;;;;;4990202;28;20456;-81
2023/11/11 10:05:04;;;;;;;7.85;1.40;;;7.10;99.90;;;;;;4995178;28;20127;-81
2023/11/11 10:07:30;;;;;;;2.85;0.93;;;7.10;99.90;;;;;;5007423;28;20046;-81
2023/11/11 10:09:56;;;;;;;4.00;1.10;;;7.20;99.90;;;;;;4990977;28;20056;-81
2023/11/11 10:12:23;;;;;;;4.82;0.75;;;7.20;99.90;;;;;;5006600;28;20054;-81
2023/11/11 10:14:49;;;;;;;5.90;1.30;;;7.30;99.90;;;;;;4987798;28;20081;-82
2023/11/11 10:17:15;;;;;;;4.57;1.13;;;7.30;99.90;;;;;;5011880;28;20474;-81
2023/11/11 10:19:41;;;;;;;7.03;1.30;;;7.30;99.90;;;;;;5007988;28;20125;-81
2023/11/11 10:22:11;;;;;;;4.80;1.00;;;7.40;99.90;;;;;;4995428;28;20053;-82
2023/11/11 10:24:37;;;;;;;5.37;1.03;;;7.30;99.90;;;;;;5004980;28;20060;-81
2023/11/11 10:27:07;;;;;;;4.13;1.33;;;7.40;99.90;;;;;;5011834;28;20422;-81
2023/11/11 10:29:36;;;;;;;5.75;0.90;;;7.40;99.90;;;;;;5004335;28;21350;-84
2023/11/11 10:32:08;;;;;;;3.72;0.88;;;7.60;99.90;;;;;;4995230;28;20500;-82
2023/11/11 10:34:36;;;;;;;3.72;1.27;;;7.50;99.90;;;;;;5005338;28;21004;-81
2023/11/11 10:37:05;;;;;;;6.18;1.55;;;7.60;99.90;;;;;;4997594;28;20037;-82
2023/11/11 10:39:35;;;;;;;6.38;1.38;;;7.60;99.90;;;;;;5001205;28;20049;-82
2023/11/11 10:42:02;;;;;;;5.78;1.58;;;7.70;99.90;;;;;;4994450;28;20037;-81
2023/11/11 10:44:29;;;;;;;3.95;1.40;;;7.70;99.90;;;;;;4993871;28;20403;-83
2023/11/11 10:46:57;;;;;;;8.15;1.60;;;7.80;99.90;;;;;;4990067;28;20049;-82
2023/11/11 10:49:26;;;;;;;8.70;1.80;;;7.90;99.90;;;;;;4996515;28;20053;-82
2023/11/11 10:51:59;;;;;;;6.07;1.75;;;7.90;99.90;;;;;;4994019;28;20116;-82
2023/11/11 10:54:26;;;;;;;3.85;1.70;;;8.00;99.90;;;;;;5001969;28;20136;-82
2023/11/11 10:56:56;;;;;;;8.00;2.20;;;8.00;99.90;;;;;;4976150;28;20049;-81
2023/11/11 10:59:30;;;;;;;5.30;1.60;;;8.10;99.90;;;;;;4996633;28;20064;-82
2023/11/11 11:01:56;;;;;;;4.05;1.80;;;8.10;99.90;;;;;;4973277;28;20057;-76
2023/11/11 11:04:27;;;;;;;7.75;1.92;;;8.20;99.90;;;;;;4970756;28;20122;-75
2023/11/11 11:07:03;;;;;;;6.00;2.08;;;8.40;99.90;;;;;;4978498;28;20578;-76
2023/11/11 11:09:38;;;;;;;8.73;2.03;;;8.30;99.90;;;;;;4992833;28;20067;-75
2023/11/11 11:12:21;;;;;;;7.72;1.98;;;8.40;99.90;;;;;;4992081;28;20037;-76
2023/11/11 11:14:55;;;;;;;6.25;1.40;;;8.40;99.90;;;;;;4976321;28;20104;-83
2023/11/11 11:17:44;;;;;;;5.03;1.38;;;8.50;99.90;;;;;;4973132;28;20136;-82
2023/11/11 11:20:20;;;;;;;4.00;1.00;;;8.40;99.90;;;;;;4993875;28;20093;-83
2023/11/11 11:22:49;;;;;;;4.70;0.80;;;8.40;99.90;;;;;;4986972;28;20073;-82
2023/11/11 11:25:36;;;;;;;4.28;1.00;;;8.40;99.90;;;;;;5009617;28;20037;-83
2023/11/11 11:28:14;;;;;;;3.97;0.57;;;8.50;99.90;;;;;;5009212;28;20045;-82
2023/11/11 11:30:44;;;;;;;2.17;0.80;;;8.50;99.90;;;;;;5009221;28;20045;-82
2023/11/11 11:33:14;;;;;;;6.20;1.17;;;8.50;99.90;;;;;;5003080;28;20053;-82
2023/11/11 11:35:44;;;;;;;7.22;0.80;;;8.50;99.90;;;;;;4983126;28;20135;-81
2023/11/11 11:38:18;;;;;;;3.88;0.60;;;8.50;99.90;;;;;;5008054;28;20056;-82
2023/11/11 11:40:45;;;;;;;5.35;0.73;;;8.40;99.90;;;;;;5009291;28;20048;-82
2023/11/11 11:43:11;;;;;;;5.47;0.70;;;8.40;99.90;;;;;;5003963;28;20150;-82
2023/11/11 11:45:38;;;;;;;2.78;0.50;;;8.50;99.90;;;;;;5005408;28;20551;-81
2023/11/11 11:48:07;;;;;;;2.47;0.50;;;8.50;99.90;;;;;;5007060;28;20107;-82
2023/11/11 11:50:36;;;;;;;4.18;0.57;;;8.60;99.90;;;;;;5007048;28;20045;-81
2023/11/11 11:53:03;;;;;;;2.17;0.40;;;8.60;99.90;;;;;;4986916;28;20041;-82
2023/11/11 11:55:40;;;;;;;2.28;0.47;;;8.60;99.90;;;;;;4990725;28;20118;-82
2023/11/11 11:58:07;;;;;;;4.43;0.50;;;8.60;99.90;;;;;;4982644;28;20046;-82
2023/11/11 12:00:38;;;;;;;3.92;0.50;;;8.60;99.90;;;;;;5003982;28;20076;-81
2023/11/11 12:03:04;;;;;;;2.10;0.45;;;8.50;99.90;;;;;;5003461;28;20045;-81
2023/11/11 12:05:30;;;;;;;3.53;0.57;;;8.60;99.90;;;;;;4988829;28;20115;-82
2023/11/11 12:07:56;;;;;;;3.08;0.50;;;8.60;99.90;;;;;;4996093;28;20054;-82
2023/11/11 12:10:22;;;;;;;4.30;0.80;;;8.60;99.90;;;;;;5006586;28;20050;-82
2023/11/11 12:12:48;;;;;;;2.28;0.40;;;8.70;99.90;;;;;;4987255;28;20046;-81
2023/11/11 12:15:18;;;;;;;2.90;0.60;;;8.70;99.90;;;;;;4990627;28;20507;-81
2023/11/11 12:17:47;;;;;;;2.65;0.43;;;8.80;99.90;;;;;;4996694;28;20129;-81
2023/11/11 12:20:14;;;;;;;1.90;0.60;;;8.90;99.90;;;;;;4994915;28;20051;-80
2023/11/11 12:22:44;;;;;;;2.65;0.60;;;8.90;99.90;;;;;;4989382;28;20072;-81
2023/11/11 12:25:11;;;;;;;3.90;0.90;;;8.80;99.90;;;;;;5004353;28;20416;-81
2023/11/11 12:27:37;;;;;;;4.93;0.90;;;8.80;99.90;;;;;;5007066;28;21157;-81
2023/11/11 12:30:21;;;;;;;3.90;0.63;;;8.70;99.90;;;;;;4987725;28;20146;-81
2023/11/11 12:33:09;;;;;;;3.92;0.50;;;8.70;99.90;;;;;;5003628;28;20049;-81
2023/11/11 12:35:42;;;;;;;4.28;0.60;;;8.60;99.90;;;;;;5005094;28;20072;-82
2023/11/11 12:38:24;;;;;;;4.80;0.88;;;8.60;99.90;;;;;;4988126;28;20057;-82
2023/11/11 12:40:52;;;;;;;4.03;0.80;;;8.60;99.90;;;;;;4989824;28;20040;-82
2023/11/11 12:43:47;;;;;;;4.00;0.60;;;8.60;99.90;;;;;;4997268;28;20061;-83
2023/11/11 12:46:16;;;;;;;2.47;0.60;;;8.60;99.90;;;;;;4988778;28;20391;-82
2023/11/11 12:48:42;;;;;;;4.38;0.88;;;8.60;99.90;;;;;;5003278;28;20041;-82
2023/11/11 12:51:30;;;;;;;5.45;0.73;;;8.70;99.90;;;;;;5017041;28;20079;-81
2023/11/11 12:53:56;;;;;;;4.88;0.80;;;8.70;99.90;;;;;;5001463;28;20381;-82
2023/11/11 12:56:23;;;;;;;3.75;1.00;;;8.60;99.90;;;;;;4993923;28;20056;-82
2023/11/11 12:59:03;;;;;;;3.33;0.80;;;8.60;99.90;;;;;;4991707;28;20045;-82